Terminal Aerodrome Forecast
Issued by NWS Upton, NY

Home | Current Version | Previous Version | Text Only | Print | Product List | Glossary On
Versions: 1 2 3 4 5 6 7 8 9 10 11 12 13 14 15 16 17 18 19 20 21 22 23 24 25 26 27 28 29 30 31 32
757
FTUS41 KOKX 111138
TAFLGA
TAF
KLGA 111138Z 1112/1212 29020G27KT P6SM BKN045
     FM111500 29022G33KT P6SM BKN050
      TEMPO 1116/1120 2SM -SHSN BKN020
     FM120200 30016G28KT P6SM FEW040
     FM121000 29010KT P6SM BKN250=

USA.gov is the U.S. government's official web portal to all federal, state and local government web resources and services.